createdAt,value
2017-06-23T00:00:11.220Z,16.81
2017-06-23T00:00:59.357Z,16.85
2017-06-23T00:01:54.322Z,16.80
2017-06-23T00:02:49.408Z,16.78
2017-06-23T00:03:43.475Z,16.79
2017-06-23T00:04:32.466Z,16.89
2017-06-23T00:05:26.335Z,16.88
2017-06-23T00:06:15.594Z,16.86
2017-06-23T00:07:09.520Z,16.84
2017-06-23T00:08:04.595Z,16.89
2017-06-23T00:08:52.963Z,16.92
2017-06-23T00:09:41.787Z,16.88
2017-06-23T00:10:41.769Z,16.80
2017-06-23T00:11:30.590Z,16.81
2017-06-23T00:12:24.684Z,16.76
2017-06-23T00:13:24.936Z,16.69
2017-06-23T00:14:24.938Z,16.71
2017-06-23T00:15:18.798Z,16.74
2017-06-23T00:16:19.041Z,16.65
2017-06-23T00:17:12.902Z,16.59
2017-06-23T00:18:00.885Z,16.57
2017-06-23T00:18:50.244Z,16.54
2017-06-23T00:19:50.003Z,16.44
2017-06-23T00:20:45.007Z,16.35
2017-06-23T00:21:34.077Z,16.34
2017-06-23T00:22:34.129Z,16.20
2017-06-23T00:23:28.200Z,16.08
2017-06-23T00:24:23.295Z,16.04
2017-06-23T00:25:23.284Z,15.95
2017-06-23T00:26:18.273Z,15.82
2017-06-23T00:27:06.350Z,15.79
2017-06-23T00:27:55.580Z,15.66
2017-06-23T00:28:44.626Z,15.57
2017-06-23T00:29:33.676Z,15.53
2017-06-23T00:30:22.693Z,15.42
2017-06-23T00:31:17.809Z,15.38
2017-06-23T00:32:06.822Z,15.32
2017-06-23T00:33:00.851Z,15.26
2017-06-23T00:33:54.931Z,15.32
2017-06-23T00:34:43.873Z,15.34
2017-06-23T00:35:37.944Z,15.32
2017-06-23T00:36:32.051Z,15.30
2017-06-23T00:37:26.894Z,15.30
2017-06-23T00:38:15.919Z,15.28
2017-06-23T00:39:04.997Z,15.27
2017-06-23T00:39:53.971Z,15.22
2017-06-23T00:40:43.042Z,15.22
2017-06-23T00:41:43.211Z,15.18
2017-06-23T00:42:31.206Z,15.15
2017-06-23T00:43:26.287Z,15.12
2017-06-23T00:44:21.486Z,15.06
2017-06-23T00:45:15.257Z,15.04
2017-06-23T00:46:15.270Z,15.07
2017-06-23T00:47:09.317Z,15.09
2017-06-23T00:48:10.382Z,15.14
2017-06-23T00:49:10.409Z,15.17
2017-06-23T00:50:05.476Z,15.22
2017-06-23T00:50:53.490Z,15.25
2017-06-23T00:51:41.537Z,15.28
2017-06-23T00:52:42.623Z,15.35
2017-06-23T00:53:37.915Z,15.38
2017-06-23T00:54:25.938Z,15.40
2017-06-23T00:55:19.680Z,15.42
2017-06-23T00:56:14.698Z,15.46
2017-06-23T00:57:03.772Z,15.51
2017-06-23T00:58:04.148Z,15.60
2017-06-23T00:58:58.249Z,15.70
2017-06-23T00:59:58.071Z,15.72
2017-06-23T01:00:52.122Z,15.73
2017-06-23T01:01:47.215Z,15.74
2017-06-23T01:02:36.231Z,15.74
2017-06-23T01:03:25.102Z,15.74
2017-06-23T01:04:14.314Z,15.74
2017-06-23T01:05:03.197Z,15.76
2017-06-23T01:05:57.198Z,15.78
2017-06-23T01:06:52.243Z,15.77
2017-06-23T01:07:52.270Z,15.79
2017-06-23T01:08:41.534Z,15.82
2017-06-23T01:09:36.383Z,15.83
2017-06-23T01:10:30.489Z,15.86
2017-06-23T01:11:25.466Z,15.86
2017-06-23T01:12:19.603Z,15.87
2017-06-23T01:13:13.555Z,15.94
2017-06-23T01:14:02.872Z,15.96
2017-06-23T01:14:50.890Z,15.97
2017-06-23T01:15:50.710Z,16.02
2017-06-23T01:16:38.710Z,16.00
2017-06-23T01:17:27.042Z,15.99
2017-06-23T01:18:21.793Z,16.02
2017-06-23T01:19:10.123Z,16.03
2017-06-23T01:20:04.906Z,16.00
2017-06-23T01:20:53.954Z,16.00
2017-06-23T01:21:42.975Z,16.00
2017-06-23T01:22:32.010Z,16.00
2017-06-23T01:23:26.083Z,15.98
2017-06-23T01:24:20.292Z,15.93
2017-06-23T01:25:15.683Z,15.93
2017-06-23T01:26:03.367Z,15.94
2017-06-23T01:26:52.399Z,15.96
2017-06-23T01:27:46.518Z,15.94
2017-06-23T01:28:46.569Z,15.94
2017-06-23T01:29:35.669Z,15.95
2017-06-23T01:30:23.742Z,16.00
2017-06-23T01:31:12.685Z,16.00
2017-06-23T01:32:01.715Z,15.99
2017-06-23T01:33:01.739Z,15.98
2017-06-23T01:33:56.795Z,15.94
2017-06-23T01:34:50.764Z,15.89
2017-06-23T01:35:45.936Z,15.88
2017-06-23T01:36:39.931Z,15.86
2017-06-23T01:37:33.965Z,15.85
2017-06-23T01:38:27.951Z,15.88
2017-06-23T01:39:28.034Z,15.86
2017-06-23T01:40:16.061Z,15.83
2017-06-23T01:41:04.153Z,15.87
2017-06-23T01:41:53.176Z,15.90
2017-06-23T01:42:48.150Z,15.87
2017-06-23T01:43:37.315Z,15.88
2017-06-23T01:44:26.360Z,15.88
2017-06-23T01:45:26.350Z,15.88
2017-06-23T01:46:20.589Z,15.88
2017-06-23T01:47:14.408Z,15.87
2017-06-23T01:48:08.498Z,15.88
2017-06-23T01:49:02.586Z,15.87
2017-06-23T01:49:56.570Z,15.86
2017-06-23T01:50:50.566Z,15.85
2017-06-23T01:51:38.618Z,15.86
2017-06-23T01:52:32.692Z,15.83
2017-06-23T01:53:20.496Z,15.82
2017-06-23T01:54:14.826Z,15.84
2017-06-23T01:55:08.759Z,15.85
2017-06-23T01:56:02.862Z,15.83
2017-06-23T01:56:51.884Z,15.83
2017-06-23T01:57:41.018Z,15.86
2017-06-23T01:58:34.798Z,15.84
2017-06-23T01:59:30.059Z,15.87
2017-06-23T02:00:24.146Z,15.90
2017-06-23T02:01:19.106Z,15.92
2017-06-23T02:02:13.268Z,15.96
2017-06-23T02:03:08.176Z,15.93
2017-06-23T02:04:02.290Z,15.96
2017-06-23T02:04:50.100Z,15.95
2017-06-23T02:05:45.363Z,15.96
2017-06-23T02:06:39.350Z,15.92
2017-06-23T02:07:34.401Z,15.90
2017-06-23T02:08:28.400Z,15.92
2017-06-23T02:09:16.576Z,15.94
2017-06-23T02:10:10.308Z,15.94
2017-06-23T02:10:59.418Z,15.92
2017-06-23T02:11:59.411Z,15.92
2017-06-23T02:12:53.777Z,15.89
2017-06-23T02:13:41.731Z,15.88
2017-06-23T02:14:29.499Z,15.88
2017-06-23T02:15:24.633Z,15.88
2017-06-23T02:16:25.657Z,15.88
2017-06-23T02:17:13.702Z,15.86
2017-06-23T02:18:13.954Z,15.84
2017-06-23T02:19:09.044Z,15.82
2017-06-23T02:20:02.816Z,15.82
2017-06-23T02:21:02.807Z,15.82
2017-06-23T02:21:56.901Z,15.78
2017-06-23T02:22:50.966Z,15.79
2017-06-23T02:23:45.074Z,15.79
2017-06-23T02:24:40.028Z,15.79
2017-06-23T02:25:40.044Z,15.80
2017-06-23T02:26:29.096Z,15.78
2017-06-23T02:27:23.171Z,15.78
2017-06-23T02:28:12.184Z,15.80
2017-06-23T02:29:07.324Z,15.80
2017-06-23T02:30:01.241Z,15.80
2017-06-23T02:30:55.286Z,15.80
2017-06-23T02:31:50.390Z,15.75
2017-06-23T02:32:38.408Z,15.79
2017-06-23T02:33:27.456Z,15.80
2017-06-23T02:34:16.742Z,15.82
2017-06-23T02:35:05.542Z,15.82
2017-06-23T02:35:53.578Z,15.84
2017-06-23T02:36:48.611Z,15.84
2017-06-23T02:37:42.689Z,15.79
2017-06-23T02:38:31.696Z,15.80
2017-06-23T02:39:31.781Z,15.80
2017-06-23T02:40:20.783Z,15.77
2017-06-23T02:41:08.850Z,15.76
2017-06-23T02:41:57.894Z,15.77
2017-06-23T02:42:46.970Z,15.74
2017-06-23T02:43:41.286Z,15.73
2017-06-23T02:44:42.028Z,15.70
2017-06-23T02:45:37.070Z,15.68
2017-06-23T02:46:32.110Z,15.68
2017-06-23T02:47:20.123Z,15.66
2017-06-23T02:48:15.193Z,15.62
2017-06-23T02:49:03.513Z,15.64
2017-06-23T02:49:52.381Z,15.68
2017-06-23T02:50:46.312Z,15.72
2017-06-23T02:51:35.370Z,15.73
2017-06-23T02:52:29.430Z,15.72
2017-06-23T02:53:17.461Z,15.72
2017-06-23T02:54:11.497Z,15.72
2017-06-23T02:55:05.661Z,15.72
2017-06-23T02:55:59.663Z,15.70
2017-06-23T02:56:47.728Z,15.70
2017-06-23T02:57:36.836Z,15.72
2017-06-23T02:58:25.844Z,15.74
2017-06-23T02:59:26.938Z,15.72
2017-06-23T03:00:27.144Z,15.70
2017-06-23T03:01:20.932Z,15.68
2017-06-23T03:02:14.896Z,15.70
2017-06-23T03:03:09.899Z,15.72
2017-06-23T03:03:58.994Z,15.74
2017-06-23T03:04:59.004Z,15.70
2017-06-23T03:05:54.151Z,15.72
2017-06-23T03:06:48.088Z,15.73
2017-06-23T03:07:43.180Z,15.74
2017-06-23T03:08:32.341Z,15.70
2017-06-23T03:09:26.211Z,15.69
2017-06-23T03:10:26.279Z,15.64
2017-06-23T03:11:15.285Z,15.64
2017-06-23T03:12:09.385Z,15.63
2017-06-23T03:13:03.397Z,15.60
2017-06-23T03:13:57.487Z,15.60
2017-06-23T03:14:51.495Z,15.62
2017-06-23T03:15:40.601Z,15.62
2017-06-23T03:16:35.599Z,15.62
2017-06-23T03:17:23.621Z,15.59
2017-06-23T03:18:12.666Z,15.57
2017-06-23T03:19:07.701Z,15.55
2017-06-23T03:20:07.861Z,15.60
2017-06-23T03:21:01.876Z,15.56
2017-06-23T03:21:56.056Z,15.53
2017-06-23T03:22:44.897Z,15.52
2017-06-23T03:23:39.193Z,15.42
2017-06-23T03:24:33.147Z,15.43
2017-06-23T03:25:27.001Z,15.41
2017-06-23T03:26:15.028Z,15.31
2017-06-23T03:27:03.116Z,15.32
2017-06-23T03:27:58.132Z,15.23
2017-06-23T03:28:53.502Z,15.22
2017-06-23T03:29:47.239Z,15.18
2017-06-23T03:30:41.294Z,15.14
2017-06-23T03:31:35.321Z,15.18
2017-06-23T03:32:29.387Z,15.18
2017-06-23T03:33:24.427Z,15.15
2017-06-23T03:34:25.477Z,15.20
2017-06-23T03:35:19.506Z,15.18
2017-06-23T03:36:08.568Z,15.13
2017-06-23T03:36:57.577Z,15.17
2017-06-23T03:37:45.700Z,15.07
2017-06-23T03:38:33.684Z,15.08
2017-06-23T03:39:27.886Z,15.02
2017-06-23T03:40:16.789Z,15.02
2017-06-23T03:41:10.819Z,15.00
2017-06-23T03:42:04.891Z,15.02
2017-06-23T03:42:53.964Z,15.02
2017-06-23T03:43:48.991Z,15.03
2017-06-23T03:44:49.029Z,14.98
2017-06-23T03:45:42.999Z,14.98
2017-06-23T03:46:43.037Z,14.94
2017-06-23T03:47:37.105Z,14.88
2017-06-23T03:48:31.413Z,14.80
2017-06-23T03:49:20.186Z,14.80
2017-06-23T03:50:14.430Z,14.78
2017-06-23T03:51:09.442Z,14.78
2017-06-23T03:52:09.331Z,14.76
2017-06-23T03:53:09.376Z,14.68
2017-06-23T03:54:10.566Z,14.78
2017-06-23T03:54:58.520Z,14.75
2017-06-23T03:55:53.505Z,14.77
2017-06-23T03:56:47.514Z,14.72
2017-06-23T03:57:42.737Z,14.73
2017-06-23T03:58:37.616Z,14.67
2017-06-23T03:59:31.788Z,14.69
2017-06-23T04:00:31.687Z,14.68
2017-06-23T04:01:26.733Z,14.64
2017-06-23T04:02:20.770Z,14.60
2017-06-23T04:03:09.821Z,14.57
2017-06-23T04:03:58.897Z,14.61
2017-06-23T04:04:47.940Z,14.63
2017-06-23T04:05:36.979Z,14.67
2017-06-23T04:06:26.224Z,14.66
2017-06-23T04:07:14.038Z,14.67
2017-06-23T04:08:02.088Z,14.68
2017-06-23T04:08:56.109Z,14.77
2017-06-23T04:09:50.270Z,14.72
2017-06-23T04:10:45.232Z,14.77
2017-06-23T04:11:45.269Z,14.77
2017-06-23T04:12:40.283Z,14.79
2017-06-23T04:13:34.429Z,14.76
2017-06-23T04:14:28.397Z,14.76
2017-06-23T04:15:28.543Z,14.76
2017-06-23T04:16:22.615Z,14.77
2017-06-23T04:17:11.604Z,14.83
2017-06-23T04:17:59.718Z,14.78
2017-06-23T04:18:53.595Z,14.80
2017-06-23T04:19:48.683Z,14.80
2017-06-23T04:20:42.708Z,14.78
2017-06-23T04:21:30.786Z,14.80
2017-06-23T04:22:30.817Z,14.84
2017-06-23T04:23:24.865Z,14.84
2017-06-23T04:24:12.883Z,14.89
2017-06-23T04:25:01.939Z,14.92
2017-06-23T04:26:03.249Z,14.87
2017-06-23T04:26:52.007Z,14.89
2017-06-23T04:27:40.049Z,14.86
2017-06-23T04:28:29.091Z,14.93
2017-06-23T04:29:29.138Z,14.84
2017-06-23T04:30:23.173Z,14.95
2017-06-23T04:31:12.272Z,14.95
2017-06-23T04:32:07.315Z,15.02
2017-06-23T04:33:07.351Z,15.07
2017-06-23T04:33:55.579Z,15.08
2017-06-23T04:34:55.418Z,15.16
2017-06-23T04:35:49.477Z,15.25
2017-06-23T04:36:37.613Z,15.20
2017-06-23T04:37:31.695Z,15.18
2017-06-23T04:38:20.597Z,15.28
2017-06-23T04:39:15.704Z,15.32
2017-06-23T04:40:09.834Z,15.32
2017-06-23T04:41:09.719Z,15.35
2017-06-23T04:42:04.993Z,15.43
2017-06-23T04:42:58.791Z,15.48
2017-06-23T04:43:52.863Z,15.55
2017-06-23T04:44:47.001Z,15.58
2017-06-23T04:45:36.032Z,15.73
2017-06-23T04:46:25.056Z,15.78
2017-06-23T04:47:20.053Z,15.87
2017-06-23T04:48:15.097Z,15.92
2017-06-23T04:49:09.119Z,15.98
2017-06-23T04:50:03.166Z,15.99
2017-06-23T04:50:58.462Z,16.04
2017-06-23T04:51:58.533Z,15.99
2017-06-23T04:52:52.593Z,15.89
2017-06-23T04:53:46.640Z,15.90
2017-06-23T04:54:46.667Z,15.86
2017-06-23T04:55:40.689Z,15.84
2017-06-23T04:56:35.707Z,15.93
2017-06-23T04:57:30.807Z,15.90
2017-06-23T04:58:25.905Z,16.13
2017-06-23T04:59:25.878Z,16.18
2017-06-23T05:00:20.932Z,16.32
2017-06-23T05:01:20.964Z,16.42
2017-06-23T05:02:16.022Z,16.45
2017-06-23T05:03:16.051Z,16.52
2017-06-23T05:04:05.117Z,16.52
2017-06-23T05:04:59.165Z,16.51
2017-06-23T05:05:54.162Z,16.33
2017-06-23T05:06:43.204Z,16.37
2017-06-23T05:07:38.287Z,16.18
2017-06-23T05:08:32.296Z,16.19
2017-06-23T05:09:26.398Z,16.12
2017-06-23T05:10:21.420Z,16.12
2017-06-23T05:11:10.489Z,16.16
2017-06-23T05:12:04.515Z,16.10
2017-06-23T05:12:59.576Z,16.06
2017-06-23T05:13:53.563Z,16.12
2017-06-23T05:14:47.834Z,16.34
2017-06-23T05:15:47.743Z,16.54
2017-06-23T05:16:41.715Z,16.76
2017-06-23T05:17:35.807Z,17.02
2017-06-23T05:18:30.811Z,17.08
2017-06-23T05:19:24.875Z,17.24
2017-06-23T05:20:24.946Z,17.40
2017-06-23T05:21:20.003Z,17.42
2017-06-23T05:22:09.017Z,17.41
2017-06-23T05:23:03.103Z,17.51
2017-06-23T05:24:04.155Z,17.59
2017-06-23T05:24:58.184Z,17.86
2017-06-23T05:25:58.242Z,17.86
2017-06-23T05:26:52.247Z,18.25
2017-06-23T05:27:46.336Z,18.53
2017-06-23T05:28:46.426Z,18.70
2017-06-23T05:29:35.433Z,18.57
2017-06-23T05:30:29.432Z,18.38
2017-06-23T05:31:23.752Z,17.90
2017-06-23T05:32:11.552Z,17.55
2017-06-23T05:33:12.621Z,17.38
2017-06-23T05:34:12.643Z,17.52
2017-06-23T05:35:06.704Z,17.69
2017-06-23T05:36:01.748Z,17.75
2017-06-23T05:36:49.835Z,18.20
2017-06-23T05:37:38.844Z,18.66
2017-06-23T05:38:32.941Z,18.76
2017-06-23T05:39:32.949Z,19.05
2017-06-23T05:40:21.052Z,19.16
2017-06-23T05:41:21.046Z,19.21
2017-06-23T05:42:15.122Z,19.55
2017-06-23T05:43:09.172Z,19.56
2017-06-23T05:44:04.227Z,19.62
2017-06-23T05:44:58.255Z,19.68
2017-06-23T05:45:53.308Z,19.83
2017-06-23T05:46:47.373Z,20.08
2017-06-23T05:47:47.421Z,20.31
2017-06-23T05:48:41.448Z,20.80
2017-06-23T05:49:35.557Z,20.87
2017-06-23T05:50:35.587Z,21.30
2017-06-23T05:51:29.419Z,21.41
2017-06-23T05:52:23.606Z,21.14
2017-06-23T05:53:17.582Z,20.83
2017-06-23T05:54:11.767Z,20.46
2017-06-23T05:55:05.866Z,19.84
2017-06-23T05:56:00.860Z,19.54
2017-06-23T05:56:55.905Z,19.31
2017-06-23T05:57:44.951Z,19.04
2017-06-23T05:58:39.072Z,19.00
2017-06-23T05:59:34.109Z,18.81
2017-06-23T06:00:28.134Z,19.06
2017-06-23T06:01:23.251Z,18.90
2017-06-23T06:02:17.203Z,18.93
2017-06-23T06:03:11.328Z,18.82
2017-06-23T06:04:06.446Z,18.80
2017-06-23T06:04:55.411Z,18.78
2017-06-23T06:05:50.486Z,18.97
2017-06-23T06:06:44.571Z,19.32
2017-06-23T06:07:44.558Z,19.56
2017-06-23T06:08:38.588Z,19.68
2017-06-23T06:09:32.669Z,19.92
2017-06-23T06:10:32.710Z,20.31
2017-06-23T06:11:27.797Z,20.56
2017-06-23T06:12:27.915Z,21.16
2017-06-23T06:13:21.861Z,21.37
2017-06-23T06:14:21.975Z,22.02
2017-06-23T06:15:16.977Z,22.43
2017-06-23T06:16:06.058Z,22.75
2017-06-23T06:17:01.097Z,23.11
2017-06-23T06:17:55.177Z,23.52
2017-06-23T06:18:55.179Z,23.70
2017-06-23T06:19:50.269Z,23.64
2017-06-23T06:20:50.541Z,23.26
2017-06-23T06:21:50.323Z,22.79
2017-06-23T06:22:45.429Z,22.45
2017-06-23T06:23:40.427Z,21.96
2017-06-23T06:24:34.496Z,21.88
2017-06-23T06:25:28.554Z,21.49
2017-06-23T06:26:22.612Z,21.20
2017-06-23T06:27:11.712Z,20.90
2017-06-23T06:28:06.712Z,20.62
2017-06-23T06:28:55.745Z,20.24
2017-06-23T06:29:55.833Z,19.94
2017-06-23T06:30:49.889Z,19.75
2017-06-23T06:31:43.977Z,19.44
2017-06-23T06:32:39.005Z,19.44
2017-06-23T06:33:34.063Z,19.58
2017-06-23T06:34:34.110Z,19.86
2017-06-23T06:35:34.173Z,19.94
2017-06-23T06:36:34.206Z,20.10
2017-06-23T06:37:28.510Z,20.43
2017-06-23T06:38:22.339Z,21.00
2017-06-23T06:39:16.346Z,21.40
2017-06-23T06:40:10.440Z,21.42
2017-06-23T06:41:04.449Z,21.29
2017-06-23T06:42:04.523Z,21.28
2017-06-23T06:42:59.589Z,21.02
2017-06-23T06:43:54.645Z,21.02
2017-06-23T06:44:54.647Z,21.29
2017-06-23T06:45:48.792Z,21.60
2017-06-23T06:46:42.774Z,21.78
2017-06-23T06:47:36.833Z,21.48
2017-06-23T06:48:30.895Z,21.08
2017-06-23T06:49:30.923Z,20.58
2017-06-23T06:50:25.986Z,20.19
2017-06-23T06:51:20.062Z,19.96
2017-06-23T06:52:15.134Z,20.11
2017-06-23T06:53:10.110Z,20.38
2017-06-23T06:54:04.230Z,20.71
2017-06-23T06:55:04.291Z,20.93
2017-06-23T06:55:53.330Z,21.12
2017-06-23T06:56:42.375Z,21.26
2017-06-23T06:57:37.314Z,21.43
2017-06-23T06:58:31.455Z,21.13
2017-06-23T06:59:26.574Z,21.10
2017-06-23T07:00:20.482Z,21.16
2017-06-23T07:01:09.581Z,21.44
2017-06-23T07:02:03.439Z,22.12
2017-06-23T07:02:51.586Z,22.66
2017-06-23T07:03:46.868Z,23.06
2017-06-23T07:04:40.675Z,23.31
2017-06-23T07:05:29.850Z,23.20
2017-06-23T07:06:24.945Z,23.09
2017-06-23T07:07:14.065Z,22.99
2017-06-23T07:08:08.115Z,23.11
2017-06-23T07:09:02.058Z,23.62
2017-06-23T07:09:51.278Z,23.76
2017-06-23T07:10:46.283Z,23.88
2017-06-23T07:11:40.316Z,24.08
2017-06-23T07:12:35.290Z,24.21
2017-06-23T07:13:29.468Z,24.34
2017-06-23T07:14:23.512Z,24.72
2017-06-23T07:15:23.624Z,25.44
2017-06-23T07:16:17.649Z,25.67
2017-06-23T07:17:06.766Z,25.20
2017-06-23T07:17:54.814Z,24.94
2017-06-23T07:18:54.846Z,24.74
2017-06-23T07:19:48.868Z,24.32
2017-06-23T07:20:44.259Z,24.05
2017-06-23T07:21:33.062Z,23.95
2017-06-23T07:22:22.088Z,23.71
2017-06-23T07:23:11.172Z,23.70
2017-06-23T07:24:05.228Z,23.88
2017-06-23T07:25:00.236Z,24.19
2017-06-23T07:25:49.914Z,24.10
2017-06-23T07:26:43.378Z,23.74
2017-06-23T07:27:32.448Z,23.55
2017-06-23T07:28:21.505Z,23.79
2017-06-23T07:29:16.311Z,24.18
2017-06-23T07:30:10.585Z,24.80
2017-06-23T07:31:10.969Z,24.37
2017-06-23T07:32:05.561Z,24.07
2017-06-23T07:32:53.796Z,23.41
2017-06-23T07:33:48.969Z,23.20
2017-06-23T07:34:43.850Z,23.48
2017-06-23T07:35:38.818Z,23.78
2017-06-23T07:36:33.105Z,24.54
2017-06-23T07:37:27.065Z,25.10
2017-06-23T07:38:26.979Z,25.45
2017-06-23T07:39:22.314Z,25.33
2017-06-23T07:40:16.250Z,25.53
2017-06-23T07:41:05.435Z,25.87
2017-06-23T07:41:53.605Z,26.24
2017-06-23T07:42:48.395Z,26.56
2017-06-23T07:43:43.590Z,26.93
2017-06-23T07:44:38.763Z,27.13
2017-06-23T07:45:33.846Z,27.18
2017-06-23T07:46:22.853Z,27.45
2017-06-23T07:47:10.882Z,27.38
2017-06-23T07:48:00.087Z,26.94
2017-06-23T07:49:00.067Z,25.77
2017-06-23T07:49:54.112Z,25.20
2017-06-23T07:50:42.311Z,25.08
2017-06-23T07:51:42.112Z,24.28
2017-06-23T07:52:36.416Z,24.32
2017-06-23T07:53:25.438Z,24.63
2017-06-23T07:54:20.510Z,24.97
2017-06-23T07:55:09.650Z,25.10
2017-06-23T07:55:58.667Z,24.91
2017-06-23T07:56:58.763Z,24.68
2017-06-23T07:57:52.870Z,25.24
2017-06-23T07:58:46.967Z,26.12
2017-06-23T07:59:41.957Z,26.24
2017-06-23T08:00:30.030Z,26.10
2017-06-23T08:01:24.141Z,25.82
2017-06-23T08:02:13.223Z,25.82
2017-06-23T08:03:08.345Z,26.06
2017-06-23T08:04:08.400Z,26.43
2017-06-23T08:05:03.429Z,26.52
2017-06-23T08:05:52.533Z,26.55
2017-06-23T08:06:47.588Z,26.40
2017-06-23T08:07:41.709Z,26.04
2017-06-23T08:08:36.803Z,25.80
2017-06-23T08:09:36.833Z,25.77
2017-06-23T08:10:30.959Z,26.06
2017-06-23T08:11:25.048Z,25.66
2017-06-23T08:12:19.098Z,24.89
2017-06-23T08:13:14.169Z,24.55
2017-06-23T08:14:03.282Z,24.21
2017-06-23T08:14:57.255Z,23.90
2017-06-23T08:15:51.334Z,23.99
2017-06-23T08:16:46.440Z,24.51
2017-06-23T08:17:35.480Z,25.48
2017-06-23T08:18:24.557Z,25.84
2017-06-23T08:19:18.894Z,25.61
2017-06-23T08:20:18.715Z,25.26
2017-06-23T08:21:07.792Z,25.04
2017-06-23T08:21:56.873Z,24.91
2017-06-23T08:22:50.942Z,25.06
2017-06-23T08:23:45.009Z,24.85
2017-06-23T08:24:40.449Z,24.46
2017-06-23T08:25:34.115Z,24.36
2017-06-23T08:26:28.242Z,23.90
2017-06-23T08:27:28.268Z,23.68
2017-06-23T08:28:23.327Z,23.47
2017-06-23T08:29:18.371Z,23.26
2017-06-23T08:30:12.556Z,23.62
2017-06-23T08:31:06.540Z,24.34
2017-06-23T08:32:00.579Z,24.69
2017-06-23T08:32:54.630Z,24.72
2017-06-23T08:33:48.726Z,24.74
2017-06-23T08:34:48.743Z,25.10
2017-06-23T08:35:49.851Z,24.98
2017-06-23T08:36:37.941Z,24.96
2017-06-23T08:37:27.012Z,25.37
2017-06-23T08:38:22.079Z,26.15
2017-06-23T08:39:22.135Z,26.59
2017-06-23T08:40:10.243Z,26.51
2017-06-23T08:41:05.353Z,25.66
2017-06-23T08:42:00.384Z,24.60
2017-06-23T08:42:55.447Z,24.00
2017-06-23T08:43:44.490Z,23.74
2017-06-23T08:44:32.580Z,23.45
2017-06-23T08:45:21.620Z,23.34
2017-06-23T08:46:16.870Z,23.22
2017-06-23T08:47:10.748Z,23.21
2017-06-23T08:48:10.782Z,22.95
2017-06-23T08:49:05.860Z,23.20
2017-06-23T08:50:00.915Z,23.22
2017-06-23T08:50:54.961Z,23.68
2017-06-23T08:51:50.025Z,24.20
2017-06-23T08:52:44.112Z,24.83
2017-06-23T08:53:44.175Z,25.00
2017-06-23T08:54:38.249Z,24.92
2017-06-23T08:55:32.301Z,24.71
2017-06-23T08:56:26.360Z,24.58
2017-06-23T08:57:21.748Z,24.00
2017-06-23T08:58:22.466Z,23.58
2017-06-23T08:59:11.508Z,23.41
2017-06-23T09:00:06.582Z,23.08
2017-06-23T09:01:06.641Z,22.88
2017-06-23T09:02:00.720Z,22.66
2017-06-23T09:02:54.964Z,22.54
2017-06-23T09:03:48.863Z,22.63
2017-06-23T09:04:42.820Z,22.86
2017-06-23T09:05:36.853Z,23.22
2017-06-23T09:06:24.981Z,24.00
2017-06-23T09:07:14.035Z,24.56
2017-06-23T09:08:14.136Z,25.10
2017-06-23T09:09:09.178Z,25.40
2017-06-23T09:10:03.251Z,25.28
2017-06-23T09:10:52.334Z,25.26
2017-06-23T09:11:47.387Z,25.42
2017-06-23T09:12:41.467Z,25.26
2017-06-23T09:13:29.532Z,24.87
2017-06-23T09:14:29.581Z,24.22
2017-06-23T09:15:23.645Z,23.88
2017-06-23T09:16:23.715Z,23.66
2017-06-23T09:17:17.708Z,23.41
2017-06-23T09:18:12.882Z,23.28
2017-06-23T09:19:07.929Z,23.16
2017-06-23T09:20:07.918Z,22.94
2017-06-23T09:21:01.950Z,23.01
2017-06-23T09:21:56.008Z,23.34
2017-06-23T09:22:51.100Z,23.74
2017-06-23T09:23:46.105Z,24.17
2017-06-23T09:24:40.539Z,24.82
2017-06-23T09:25:34.247Z,25.45
2017-06-23T09:26:28.369Z,26.07
2017-06-23T09:27:23.431Z,26.25
2017-06-23T09:28:17.472Z,26.62
2017-06-23T09:29:17.593Z,26.76
2017-06-23T09:30:12.682Z,27.27
2017-06-23T09:31:07.743Z,27.54
2017-06-23T09:32:02.836Z,27.45
2017-06-23T09:32:50.926Z,27.48
2017-06-23T09:33:44.970Z,27.35
2017-06-23T09:34:40.057Z,26.92
2017-06-23T09:35:35.466Z,26.75
2017-06-23T09:36:24.225Z,26.54
2017-06-23T09:37:24.309Z,26.24
2017-06-23T09:38:18.371Z,25.75
2017-06-23T09:39:18.464Z,25.26
2017-06-23T09:40:13.523Z,24.81
2017-06-23T09:41:13.856Z,24.63
2017-06-23T09:42:08.625Z,24.35
2017-06-23T09:42:56.674Z,24.31
2017-06-23T09:43:50.792Z,24.28
2017-06-23T09:44:44.836Z,24.44
2017-06-23T09:45:38.867Z,24.63
2017-06-23T09:46:33.913Z,24.60
2017-06-23T09:47:27.955Z,24.46
2017-06-23T09:48:28.049Z,24.42
2017-06-23T09:49:23.123Z,24.33
2017-06-23T09:50:11.142Z,24.47
2017-06-23T09:51:06.238Z,24.78
2017-06-23T09:52:02.373Z,24.97
2017-06-23T09:52:55.332Z,25.07
2017-06-23T09:53:44.462Z,25.28
2017-06-23T09:54:39.516Z,25.51
2017-06-23T09:55:39.540Z,25.49
2017-06-23T09:56:39.648Z,25.16
2017-06-23T09:57:34.963Z,24.87
2017-06-23T09:58:23.742Z,24.75
2017-06-23T09:59:17.812Z,24.46
2017-06-23T10:00:11.853Z,24.66
2017-06-23T10:01:00.961Z,24.98
2017-06-23T10:01:49.030Z,25.26
2017-06-23T10:02:44.336Z,25.40
2017-06-23T10:03:38.169Z,25.52
2017-06-23T10:04:27.254Z,25.53
2017-06-23T10:05:21.299Z,25.36
2017-06-23T10:06:15.363Z,25.18
2017-06-23T10:07:09.407Z,25.05
2017-06-23T10:07:58.815Z,24.85
2017-06-23T10:08:46.527Z,24.76
2017-06-23T10:09:35.598Z,24.72
2017-06-23T10:10:30.614Z,24.60
2017-06-23T10:11:24.751Z,24.39
2017-06-23T10:12:13.766Z,24.29
2017-06-23T10:13:03.227Z,24.24
2017-06-23T10:13:56.905Z,24.09
2017-06-23T10:14:50.980Z,24.23
2017-06-23T10:15:39.058Z,24.32
2017-06-23T10:16:33.052Z,24.54
2017-06-23T10:17:22.172Z,24.79
2017-06-23T10:18:22.493Z,24.94
2017-06-23T10:19:16.314Z,25.12
2017-06-23T10:20:10.365Z,25.25
2017-06-23T10:20:59.459Z,25.51
2017-06-23T10:21:54.549Z,25.88
2017-06-23T10:22:49.579Z,25.97
2017-06-23T10:23:43.908Z,25.82
2017-06-23T10:24:43.769Z,25.68
2017-06-23T10:25:38.814Z,25.64
2017-06-23T10:26:32.876Z,25.82
2017-06-23T10:27:26.935Z,25.81
2017-06-23T10:28:21.069Z,26.05
2017-06-23T10:29:16.167Z,26.20
2017-06-23T10:30:11.211Z,26.18
2017-06-23T10:31:06.269Z,26.06
2017-06-23T10:31:55.400Z,25.72
2017-06-23T10:32:44.376Z,25.51
2017-06-23T10:33:44.506Z,25.46
2017-06-23T10:34:38.594Z,25.28
2017-06-23T10:35:38.626Z,25.22
2017-06-23T10:36:32.673Z,25.19
2017-06-23T10:37:32.747Z,25.20
2017-06-23T10:38:32.839Z,25.42
2017-06-23T10:39:21.884Z,25.56
2017-06-23T10:40:16.366Z,25.53
2017-06-23T10:41:10.060Z,25.62
2017-06-23T10:41:59.128Z,25.66
2017-06-23T10:42:47.195Z,25.76
2017-06-23T10:43:35.282Z,26.01
2017-06-23T10:44:24.337Z,26.26
2017-06-23T10:45:19.733Z,26.55
2017-06-23T10:46:14.493Z,26.80
2017-06-23T10:47:08.587Z,26.89
2017-06-23T10:47:57.648Z,27.07
2017-06-23T10:48:46.746Z,27.18
2017-06-23T10:49:35.831Z,27.19
2017-06-23T10:50:31.276Z,26.76
2017-06-23T10:51:25.008Z,26.49
2017-06-23T10:52:25.111Z,26.58
2017-06-23T10:53:26.177Z,26.54
2017-06-23T10:54:20.268Z,26.30
2017-06-23T10:55:09.361Z,26.02
2017-06-23T10:56:01.508Z,25.97
2017-06-23T10:56:52.460Z,26.04
2017-06-23T10:57:40.556Z,26.10
2017-06-23T10:58:34.586Z,26.24
2017-06-23T10:59:28.667Z,26.62
2017-06-23T11:00:22.782Z,26.97
2017-06-23T11:01:17.161Z,27.30
2017-06-23T11:02:16.936Z,27.34
2017-06-23T11:03:06.021Z,27.37
2017-06-23T11:04:00.088Z,27.41
2017-06-23T11:04:54.194Z,27.44
2017-06-23T11:05:48.237Z,27.44
2017-06-23T11:06:37.382Z,27.38
2017-06-23T11:07:25.427Z,26.93
2017-06-23T11:08:20.506Z,26.92
2017-06-23T11:09:09.553Z,27.02
2017-06-23T11:09:58.667Z,27.38
2017-06-23T11:10:52.743Z,27.43
2017-06-23T11:11:47.878Z,27.13
2017-06-23T11:12:47.893Z,26.53
2017-06-23T11:13:36.967Z,26.30
2017-06-23T11:14:31.070Z,26.19
2017-06-23T11:15:31.151Z,26.32
2017-06-23T11:16:26.153Z,26.50
2017-06-23T11:17:15.255Z,26.36
2017-06-23T11:18:09.320Z,26.08
2017-06-23T11:19:03.396Z,25.52
2017-06-23T11:19:57.439Z,25.19
2017-06-23T11:20:51.494Z,25.00
2017-06-23T11:21:40.544Z,24.89
2017-06-23T11:22:34.626Z,24.84
2017-06-23T11:23:34.664Z,24.72
2017-06-23T11:24:29.764Z,24.77
2017-06-23T11:25:24.775Z,25.08
2017-06-23T11:26:13.855Z,25.28
2017-06-23T11:27:08.928Z,25.55
2017-06-23T11:27:58.089Z,25.85
2017-06-23T11:28:47.047Z,26.25
2017-06-23T11:29:41.181Z,26.55
2017-06-23T11:30:30.200Z,26.68
2017-06-23T11:31:24.294Z,26.39